| Date | Time | Temp. (oF) | Dew Point (oF) | Rel. Hum. (%) | Press. (in.) | Wind Dir. | Wind Speed (mph) | Hourly Rainfall (in.) |
|
|---|---|---|---|---|---|---|---|---|---|
| 1 | 11/08 | 00:00 | 55 | 54 | 100 | 29.76 | S | 4 | 0.00 |
| 2 | 11/07 | 23:00 | 55 | 54 | 98 | 29.76 | S | 2 | 0.00 |
| 3 | 11/07 | 22:00 | 56 | 55 | 97 | 29.77 | SE | 0 | 0.00 |
| 4 | 11/07 | 21:00 | 57 | 55 | 94 | 29.79 | SE | 0 | 0.00 |
| 5 | 11/07 | 20:00 | 58 | 54 | 88 | 29.79 | SSE | 0 | 0.00 |
| 6 | 11/07 | 19:00 | 59 | 54 | 85 | 29.80 | SE | 0 | 0.00 |
| 7 | 11/07 | 18:00 | 62 | 55 | 79 | 29.79 | ESE | 0 | 0.00 |
| 8 | 11/07 | 17:00 | 66 | 56 | 72 | 29.79 | SE | 0 | 0.00 |
| 9 | 11/07 | 16:00 | 67 | 56 | 69 | 29.80 | WNW | 0 | 0.00 |
| 10 | 11/07 | 15:00 | 67 | 57 | 71 | 29.81 | SW | 0 | 0.00 |
| 11 | 11/07 | 14:00 | 67 | 57 | 72 | 29.81 | W | 0 | 0.00 |
| 12 | 11/07 | 13:00 | 67 | 58 | 74 | 29.82 | WNW | 0 | 0.00 |
| 13 | 11/07 | 12:00 | 67 | 58 | 74 | 29.85 | N | 2 | 0.00 |
| 14 | 11/07 | 11:00 | 67 | 59 | 76 | 29.88 | ESE | 0 | 0.00 |
| 15 | 11/07 | 10:00 | 65 | 60 | 84 | 29.90 | E | 0 | 0.00 |
| 16 | 11/07 | 09:00 | 63 | 58 | 86 | 29.91 | NNE | 0 | 0.00 |
| 17 | 11/07 | 08:00 | 60 | 59 | 100 | 29.92 | NNW | 0 | 0.00 |
| 18 | 11/07 | 07:00 | 59 | 59 | 100 | 29.92 | E | 0 | 0.00 |
| 19 | 11/07 | 06:00 | 58 | 58 | 100 | 29.91 | NE | 0 | 0.00 |
| 20 | 11/07 | 05:00 | 58 | 58 | 100 | 29.91 | NE | 0 | 0.00 |
| 21 | 11/07 | 04:00 | 59 | 59 | 100 | 29.92 | N | 3 | 0.00 |
| 22 | 11/07 | 03:00 | 59 | 59 | 100 | 29.91 | NNW | 3 | 0.00 |
| 23 | 11/07 | 02:00 | 59 | 59 | 100 | 29.92 | NNW | 3 | 0.00 |
| 24 | 11/07 | 01:00 | 60 | 59 | 100 | 29.93 | NW | 2 | 0.00 |